Time;durP1;ratioP1;P1;durP2;ratioP2;P2;SDS_P1;SDS_P2;PMS_P1;PMS_P2;Temp;Humidity;BMP_temperature;BMP_pressure;BME280_temperature;BME280_humidity;BME280_pressure;Samples;Min_cycle;Max_cycle;Signal;HPM_P1;HPM_P2
2021/12/07 08:19:51;;;;;;;2.60;1.90;;;0.70;99.90;;;;;;5111951;27;20305;-77
2021/12/07 08:22:18;;;;;;;2.47;2.20;;;1.20;99.90;;;;;;5111318;28;20985;-78
2021/12/07 08:24:44;;;;;;;2.20;2.00;;;1.50;99.90;;;;;;5110708;28;20225;-78
2021/12/07 08:27:10;;;;;;;2.27;2.10;;;1.90;99.90;;;;;;5111781;28;20429;-78
2021/12/07 08:29:35;;;;;;;2.87;2.00;;;1.70;99.90;;;;;;5113300;28;20398;-78
2021/12/07 08:32:01;;;;;;;3.60;2.40;;;1.50;99.90;;;;;;5113732;28;20240;-78
2021/12/07 08:34:27;;;;;;;2.70;2.50;;;1.30;99.90;;;;;;5111549;28;20203;-78
2021/12/07 08:36:53;;;;;;;5.10;2.43;;;1.30;99.90;;;;;;5111232;28;20183;-78
2021/12/07 08:39:18;;;;;;;2.00;1.80;;;1.20;99.90;;;;;;5112833;28;20736;-78
2021/12/07 08:41:44;;;;;;;3.00;2.80;;;1.20;99.90;;;;;;5113985;28;20267;-78
2021/12/07 08:44:10;;;;;;;3.43;2.43;;;1.20;99.90;;;;;;5113876;28;20215;-80
2021/12/07 08:46:36;;;;;;;2.60;2.40;;;1.20;99.90;;;;;;5113718;28;20237;-78
2021/12/07 08:49:03;;;;;;;3.07;2.10;;;1.10;99.90;;;;;;5111787;28;20422;-79
2021/12/07 08:51:29;;;;;;;4.33;2.00;;;1.20;99.90;;;;;;5114896;28;20629;-78
2021/12/07 08:54:02;;;;;;;3.17;2.37;;;1.20;99.90;;;;;;5118526;28;20489;-78
2021/12/07 09:01:57;;;;;;;6.67;2.17;;;1.30;99.90;;;;;;5115747;28;20419;-80
2021/12/07 09:04:23;;;;;;;5.13;2.27;;;1.30;99.90;;;;;;5115114;28;20429;-79
2021/12/07 09:06:49;;;;;;;7.17;3.30;;;1.30;99.90;;;;;;5111338;28;20174;-78
2021/12/07 09:09:16;;;;;;;3.63;2.90;;;1.40;99.90;;;;;;5109880;28;20183;-78
2021/12/07 09:11:42;;;;;;;4.67;2.63;;;1.30;99.90;;;;;;5113787;28;20401;-78
2021/12/07 09:14:11;;;;;;;3.00;2.70;;;1.30;99.90;;;;;;5112050;28;20441;-79
2021/12/07 09:16:37;;;;;;;3.90;2.73;;;1.40;99.90;;;;;;5113132;28;20492;-78
2021/12/07 09:19:04;;;;;;;5.13;3.70;;;1.30;99.90;;;;;;5110416;28;20468;-78
2021/12/07 09:21:30;;;;;;;8.20;5.73;;;1.30;99.90;;;;;;5111275;28;20413;-78
2021/12/07 09:23:56;;;;;;;3.63;2.63;;;1.20;99.90;;;;;;5109444;28;20977;-78
2021/12/07 09:26:22;;;;;;;3.20;2.47;;;1.30;99.90;;;;;;5110469;28;20414;-78
2021/12/07 09:28:48;;;;;;;5.83;3.10;;;1.30;99.90;;;;;;5110365;28;20186;-78
2021/12/07 09:31:15;;;;;;;3.60;2.87;;;1.40;99.90;;;;;;5096321;28;20598;-78
2021/12/07 09:33:41;;;;;;;8.10;5.27;;;1.50;99.90;;;;;;5095363;28;20203;-78
2021/12/07 09:36:12;;;;;;;4.37;3.30;;;1.60;99.90;;;;;;5096794;28;20914;-78
2021/12/07 09:38:40;;;;;;;5.60;3.00;;;1.40;99.90;;;;;;5096481;28;20508;-77
2021/12/07 09:41:09;;;;;;;3.30;3.00;;;1.40;99.90;;;;;;5096234;28;20402;-77
2021/12/07 09:43:36;;;;;;;3.23;2.67;;;1.60;99.90;;;;;;5096341;28;20501;-77
2021/12/07 09:46:06;;;;;;;2.53;2.33;;;1.60;99.90;;;;;;5095018;28;20420;-77
2021/12/07 09:48:32;;;;;;;3.80;3.00;;;1.70;99.90;;;;;;5094995;28;20424;-77
2021/12/07 09:50:59;;;;;;;4.73;2.60;;;1.70;99.90;;;;;;5096053;28;20501;-77
2021/12/07 09:53:28;;;;;;;5.30;3.50;;;1.80;99.90;;;;;;5096156;28;20426;-77
2021/12/07 09:55:56;;;;;;;6.27;2.80;;;1.80;99.90;;;;;;5096102;28;20410;-77
2021/12/07 09:58:22;;;;;;;3.00;2.53;;;2.10;99.90;;;;;;5096009;28;20442;-77
2021/12/07 10:00:49;;;;;;;3.17;2.57;;;2.10;99.90;;;;;;5094763;28;20785;-78
2021/12/07 10:03:16;;;;;;;3.80;2.30;;;2.20;99.90;;;;;;5095831;28;20402;-78
2021/12/07 10:05:43;;;;;;;4.47;2.50;;;2.20;99.90;;;;;;5094749;28;20499;-78
2021/12/07 10:08:10;;;;;;;4.07;3.33;;;2.10;99.90;;;;;;5094808;28;20422;-77
2021/12/07 10:10:39;;;;;;;4.53;2.67;;;2.00;99.90;;;;;;5095635;28;20829;-77
2021/12/07 10:13:07;;;;;;;7.63;3.70;;;1.90;99.90;;;;;;5094490;28;20417;-77
2021/12/07 10:15:33;;;;;;;7.13;3.40;;;1.70;99.90;;;;;;5094459;28;20418;-77
2021/12/07 10:18:02;;;;;;;3.37;2.67;;;1.70;99.90;;;;;;5094236;28;20815;-77
2021/12/07 10:20:42;;;;;;;4.67;2.67;;;1.60;99.90;;;;;;5094242;28;20414;-78
2021/12/07 10:23:15;;;;;;;5.67;3.97;;;1.60;99.90;;;;;;5094357;28;20402;-78
2021/12/07 10:25:44;;;;;;;9.07;4.13;;;1.60;99.90;;;;;;5094388;28;20426;-79
2021/12/07 10:28:45;;;;;;;4.60;2.57;;;1.60;99.90;;;;;;5095721;28;20410;-78
2021/12/07 10:31:19;;;;;;;9.57;7.33;;;1.50;99.90;;;;;;5094068;28;20414;-78
2021/12/07 10:33:49;;;;;;;9.70;6.03;;;1.50;99.90;;;;;;5096541;28;20425;-77
2021/12/07 10:36:20;;;;;;;6.30;4.00;;;1.50;99.90;;;;;;5095893;28;20390;-77
2021/12/07 10:39:03;;;;;;;5.07;2.73;;;1.50;99.90;;;;;;5095420;28;20450;-77
2021/12/07 10:41:33;;;;;;;4.83;3.43;;;1.40;99.90;;;;;;5094150;28;20912;-77
2021/12/07 10:44:12;;;;;;;6.07;3.73;;;1.60;99.90;;;;;;5093848;28;20426;-77
2021/12/07 10:46:56;;;;;;;3.13;2.83;;;1.60;99.90;;;;;;5095214;28;20406;-77
2021/12/07 10:49:43;;;;;;;7.87;4.37;;;1.60;99.90;;;;;;5095216;28;20387;-77
2021/12/07 10:52:24;;;;;;;2.07;1.90;;;1.70;99.90;;;;;;5095102;28;20397;-77
2021/12/07 10:55:13;;;;;;;3.43;2.70;;;1.60;99.90;;;;;;5094408;28;20434;-77
2021/12/07 10:57:46;;;;;;;4.87;2.20;;;1.70;99.90;;;;;;5096206;28;20399;-77
2021/12/07 11:00:23;;;;;;;6.87;2.47;;;1.70;99.90;;;;;;5094124;28;20400;-77
2021/12/07 11:02:49;;;;;;;4.03;3.30;;;1.70;99.90;;;;;;5096082;28;20779;-77
2021/12/07 11:05:44;;;;;;;2.20;1.97;;;1.80;99.90;;;;;;5096222;28;20423;-79
2021/12/07 11:08:11;;;;;;;2.63;2.30;;;1.80;99.90;;;;;;5094219;28;20184;-77
2021/12/07 11:10:43;;;;;;;3.87;2.47;;;1.80;99.90;;;;;;5096726;28;20501;-78
2021/12/07 11:13:23;;;;;;;3.17;2.67;;;2.00;99.90;;;;;;5096656;28;20415;-78
2021/12/07 11:15:57;;;;;;;2.50;2.30;;;1.80;99.90;;;;;;5096632;28;20434;-77
2021/12/07 11:18:30;;;;;;;3.83;1.80;;;1.90;99.90;;;;;;5099133;28;20826;-77
2021/12/07 11:21:02;;;;;;;4.20;2.20;;;1.80;99.90;;;;;;5095382;28;20434;-77
2021/12/07 11:23:34;;;;;;;5.73;3.50;;;1.70;99.90;;;;;;5095334;28;20430;-78
2021/12/07 11:31:26;;;;;;;5.83;3.13;;;2.20;99.90;;;;;;5095096;28;20444;-77
2021/12/07 11:33:55;;;;;;;6.40;2.93;;;2.20;99.90;;;;;;5094867;28;20429;-77
2021/12/07 11:36:28;;;;;;;6.73;3.87;;;2.20;99.90;;;;;;5094843;28;20411;-79
2021/12/07 11:38:55;;;;;;;6.97;4.03;;;2.20;99.90;;;;;;5095355;28;20502;-77
2021/12/07 11:41:31;;;;;;;4.40;3.70;;;2.30;99.90;;;;;;5095159;28;20411;-78
2021/12/07 11:44:08;;;;;;;2.53;2.33;;;2.50;99.90;;;;;;5096057;28;20430;-78
2021/12/07 11:46:37;;;;;;;6.07;3.97;;;2.60;99.90;;;;;;5094530;28;20402;-78
2021/12/07 11:49:11;;;;;;;4.13;2.90;;;2.60;99.90;;;;;;5095475;28;20425;-77
2021/12/07 11:51:37;;;;;;;8.87;4.17;;;2.70;99.90;;;;;;5095365;28;20971;-78
2021/12/07 11:54:04;;;;;;;9.53;4.70;;;2.50;99.90;;;;;;5094474;28;20442;-78
2021/12/07 11:56:30;;;;;;;5.27;3.27;;;2.50;99.90;;;;;;5096266;28;20922;-78
2021/12/07 11:58:56;;;;;;;6.03;3.10;;;2.60;99.90;;;;;;5094604;28;20841;-77
2021/12/07 12:01:22;;;;;;;5.07;3.30;;;2.80;99.90;;;;;;5095033;28;20402;-78
2021/12/07 12:03:47;;;;;;;4.57;2.70;;;3.00;99.90;;;;;;5095072;28;20246;-78
2021/12/07 12:06:13;;;;;;;4.80;3.10;;;2.90;99.90;;;;;;5096759;28;20217;-78
2021/12/07 12:08:40;;;;;;;4.07;2.67;;;2.80;99.90;;;;;;5096072;28;20184;-78
2021/12/07 12:11:25;;;;;;;4.50;2.50;;;2.90;99.90;;;;;;5096326;28;20175;-78
2021/12/07 12:14:13;;;;;;;7.63;3.03;;;3.00;99.90;;;;;;5098370;28;20438;-78
2021/12/07 12:17:16;;;;;;;4.20;2.90;;;3.20;99.90;;;;;;5099204;28;20408;-79
2021/12/07 12:20:00;;;;;;;3.23;2.47;;;3.30;99.90;;;;;;5099330;28;20958;-78
2021/12/07 12:22:37;;;;;;;3.90;2.00;;;3.30;99.90;;;;;;5097474;28;20486;-78
2021/12/07 12:25:12;;;;;;;3.77;2.07;;;3.10;99.90;;;;;;5099425;28;20410;-78
2021/12/07 12:27:39;;;;;;;9.40;3.17;;;2.90;99.90;;;;;;5102976;28;20451;-79
2021/12/07 12:30:26;;;;;;;3.77;2.77;;;2.80;99.90;;;;;;5100675;28;20934;-79
2021/12/07 12:32:58;;;;;;;3.43;2.40;;;2.70;99.90;;;;;;5099368;28;20394;-78
2021/12/07 12:35:40;;;;;;;2.80;2.00;;;2.70;99.90;;;;;;5096980;28;20426;-78
2021/12/07 12:38:21;;;;;;;2.33;2.00;;;3.00;99.90;;;;;;5096581;28;20477;-78
2021/12/07 12:41:03;;;;;;;5.73;2.70;;;3.20;99.90;;;;;;5097934;28;20399;-79
2021/12/07 12:43:58;;;;;;;5.23;2.80;;;3.10;99.90;;;;;;5095990;28;20920;-78
2021/12/07 12:46:31;;;;;;;4.30;2.27;;;3.10;99.90;;;;;;5088759;28;21017;-78
2021/12/07 12:49:02;;;;;;;4.60;2.20;;;3.10;99.90;;;;;;5096324;28;20422;-78
2021/12/07 12:51:42;;;;;;;2.87;1.90;;;3.20;99.90;;;;;;5095512;28;20434;-78
2021/12/07 12:54:09;;;;;;;5.53;4.10;;;3.10;99.90;;;;;;5095712;28;20422;-78
2021/12/07 12:56:36;;;;;;;3.60;1.93;;;3.10;99.90;;;;;;5094874;28;20745;-78
2021/12/07 12:59:07;;;;;;;6.97;3.07;;;3.00;99.90;;;;;;5094460;28;20450;-78
2021/12/07 13:01:36;;;;;;;6.17;4.07;;;3.70;99.90;;;;;;5095690;28;20390;-78
2021/12/07 13:04:22;;;;;;;5.13;2.90;;;2.80;99.90;;;;;;5095595;28;20425;-78
2021/12/07 13:07:04;;;;;;;7.80;3.80;;;2.80;99.90;;;;;;5099953;28;20397;-78
2021/12/07 13:09:36;;;;;;;3.73;2.73;;;2.90;99.90;;;;;;5098812;28;20405;-78
2021/12/07 13:12:24;;;;;;;5.00;3.07;;;2.80;99.90;;;;;;5099869;28;20402;-80
2021/12/07 13:18:21;;;;;;;4.87;3.03;;;2.80;99.90;;;;;;5091603;28;20469;-78
2021/12/07 13:20:50;;;;;;;4.27;2.37;;;2.90;99.90;;;;;;5098935;28;20915;-78
2021/12/07 13:23:16;;;;;;;5.00;3.30;;;2.70;99.90;;;;;;5099357;28;20410;-78
2021/12/07 13:25:45;;;;;;;4.90;2.93;;;2.70;99.90;;;;;;5098903;28;20904;-78
2021/12/07 13:28:22;;;;;;;4.37;2.73;;;2.80;99.90;;;;;;5097948;28;20433;-78
2021/12/07 13:30:54;;;;;;;7.90;4.13;;;2.70;99.90;;;;;;5098027;28;20413;-78
2021/12/07 13:33:48;;;;;;;19.30;9.30;;;2.70;99.90;;;;;;5100000;28;20421;-78
2021/12/07 13:36:43;;;;;;;5.67;3.70;;;2.70;99.90;;;;;;5101264;28;20421;-78
2021/12/07 13:39:19;;;;;;;3.67;2.40;;;2.70;99.90;;;;;;5102598;28;20442;-77
2021/12/07 13:41:48;;;;;;;5.20;2.60;;;2.70;99.90;;;;;;5096237;28;20406;-78
2021/12/07 13:44:14;;;;;;;7.33;3.83;;;2.60;99.90;;;;;;5097257;28;20430;-78
2021/12/07 13:46:40;;;;;;;4.23;1.97;;;2.60;99.90;;;;;;5098216;28;20455;-78
2021/12/07 13:49:08;;;;;;;6.47;2.73;;;2.70;99.90;;;;;;5098730;28;20410;-78
2021/12/07 13:51:36;;;;;;;3.80;2.10;;;2.70;99.90;;;;;;5098884;28;20217;-78
2021/12/07 13:54:04;;;;;;;5.03;2.33;;;2.70;99.90;;;;;;5100147;28;20430;-78
2021/12/07 13:56:38;;;;;;;26.57;11.17;;;2.60;99.90;;;;;;5100914;28;20424;-78
2021/12/07 13:59:11;;;;;;;11.87;5.93;;;2.60;99.90;;;;;;5100034;28;20538;-78
2021/12/07 14:01:39;;;;;;;5.40;2.67;;;2.60;99.90;;;;;;5100315;28;21157;-78
2021/12/07 14:04:07;;;;;;;11.93;6.03;;;2.50;99.90;;;;;;5100792;28;20422;-78
2021/12/07 14:06:34;;;;;;;4.83;2.00;;;2.50;99.90;;;;;;5097961;28;20942;-78
2021/12/07 14:09:09;;;;;;;3.60;2.30;;;2.40;99.90;;;;;;5099112;28;20418;-78
2021/12/07 14:11:35;;;;;;;7.13;3.90;;;2.40;99.90;;;;;;5099540;28;20418;-78
2021/12/07 14:14:05;;;;;;;2.17;1.83;;;2.20;99.90;;;;;;5097708;28;20434;-79
2021/12/07 14:16:31;;;;;;;2.73;1.80;;;2.20;99.90;;;;;;5097585;28;20406;-78
2021/12/07 14:18:57;;;;;;;3.40;2.30;;;2.20;99.90;;;;;;5101226;28;20503;-78
2021/12/07 14:21:23;;;;;;;6.80;2.10;;;2.20;99.90;;;;;;5099623;28;20183;-77
2021/12/07 14:24:03;;;;;;;6.23;2.87;;;2.10;99.90;;;;;;5102282;28;20188;-77
2021/12/07 14:26:28;;;;;;;2.83;1.90;;;2.10;99.90;;;;;;5107326;28;20168;-77
2021/12/07 14:29:04;;;;;;;3.50;1.80;;;1.90;99.90;;;;;;5107026;28;20468;-77
2021/12/07 14:31:46;;;;;;;3.20;1.93;;;1.90;99.90;;;;;;5099716;28;20195;-78
2021/12/07 14:34:15;;;;;;;4.17;2.13;;;1.90;99.90;;;;;;5094859;28;20526;-78
2021/12/07 14:36:43;;;;;;;3.03;1.60;;;2.00;99.90;;;;;;5095076;28;20414;-78
2021/12/07 14:39:27;;;;;;;9.40;2.10;;;1.90;99.90;;;;;;5095244;28;20526;-77
2021/12/07 14:41:56;;;;;;;5.50;2.17;;;1.80;99.90;;;;;;5096163;28;20414;-78
2021/12/07 14:44:26;;;;;;;3.80;2.03;;;1.80;99.90;;;;;;5096390;28;20437;-77
2021/12/07 14:46:53;;;;;;;4.40;2.47;;;1.80;99.90;;;;;;5095269;28;20398;-77
2021/12/07 14:49:19;;;;;;;5.67;2.80;;;1.70;99.90;;;;;;5094019;28;20425;-77
2021/12/07 14:51:46;;;;;;;8.07;3.53;;;1.70;99.90;;;;;;5094831;28;20410;-77
2021/12/07 14:54:15;;;;;;;9.47;3.00;;;1.60;99.90;;;;;;5095295;28;20434;-77
2021/12/07 14:56:41;;;;;;;3.07;1.93;;;1.60;99.90;;;;;;5094969;28;20405;-77
2021/12/07 14:59:26;;;;;;;4.03;1.90;;;1.60;99.90;;;;;;5094887;28;20511;-77
2021/12/07 15:01:56;;;;;;;4.40;1.80;;;1.50;99.90;;;;;;5093671;28;20168;-77
2021/12/07 15:04:24;;;;;;;4.97;2.40;;;1.50;99.90;;;;;;5094941;28;20935;-77
2021/12/07 15:06:57;;;;;;;6.67;2.70;;;1.50;99.90;;;;;;5094790;28;20406;-78
2021/12/07 15:09:23;;;;;;;6.77;3.97;;;1.40;99.90;;;;;;5093659;28;20406;-77
2021/12/07 15:11:51;;;;;;;7.03;3.23;;;1.30;99.90;;;;;;5094658;28;20413;-77
2021/12/07 15:14:20;;;;;;;4.53;2.27;;;1.40;99.90;;;;;;5093486;28;20576;-77
2021/12/07 15:16:49;;;;;;;3.77;2.00;;;1.30;99.90;;;;;;5095192;28;20416;-77
2021/12/07 15:19:15;;;;;;;3.83;2.27;;;1.30;99.90;;;;;;5093471;28;20472;-77
2021/12/07 15:21:40;;;;;;;5.83;2.70;;;1.20;99.90;;;;;;5094738;28;20824;-77
2021/12/07 15:24:12;;;;;;;6.77;3.00;;;1.20;99.90;;;;;;5095212;28;20593;-77
2021/12/07 15:26:38;;;;;;;4.33;2.80;;;1.10;99.90;;;;;;5094739;28;20660;-77
2021/12/07 15:29:11;;;;;;;7.73;2.30;;;1.10;99.90;;;;;;5092671;28;20414;-77
2021/12/07 15:31:55;;;;;;;6.83;3.10;;;1.00;99.90;;;;;;5094353;28;20441;-77
2021/12/07 15:34:23;;;;;;;4.63;3.17;;;0.90;99.90;;;;;;5094457;28;20428;-77
2021/12/07 15:37:01;;;;;;;5.70;2.90;;;0.80;99.90;;;;;;5093288;28;20410;-77
2021/12/07 15:39:42;;;;;;;4.37;3.00;;;0.70;99.90;;;;;;5093149;28;20536;-78
2021/12/07 15:42:24;;;;;;;7.10;3.17;;;0.60;99.90;;;;;;5094101;28;20402;-77
2021/12/07 15:44:56;;;;;;;8.60;4.50;;;0.60;99.90;;;;;;5094164;28;20459;-77
2021/12/07 15:47:33;;;;;;;8.27;3.97;;;0.50;99.90;;;;;;5094239;28;20868;-77
2021/12/07 15:50:13;;;;;;;10.00;3.83;;;0.30;99.90;;;;;;5094098;28;20382;-79
2021/12/07 15:52:58;;;;;;;7.03;4.03;;;0.30;99.90;;;;;;5094245;28;20512;-77
2021/12/07 15:55:34;;;;;;;9.23;4.53;;;0.20;99.90;;;;;;5093336;28;20433;-77
2021/12/07 15:58:20;;;;;;;5.97;3.37;;;0.00;99.90;;;;;;5096306;28;20437;-77
2021/12/07 16:00:49;;;;;;;11.20;3.60;;;-0.10;99.90;;;;;;5096829;28;20460;-77
2021/12/07 16:03:18;;;;;;;8.37;3.77;;;-0.10;99.90;;;;;;5095618;28;20410;-77
2021/12/07 16:05:47;;;;;;;10.50;4.80;;;-0.20;99.90;;;;;;5092568;28;20425;-77
2021/12/07 16:08:22;;;;;;;11.57;4.77;;;-0.40;99.90;;;;;;5093718;28;20402;-77
2021/12/07 16:10:50;;;;;;;6.90;3.83;;;-0.40;99.90;;;;;;5093678;28;20423;-76
